Time;durP1;ratioP1;P1;durP2;ratioP2;P2;SDS_P1;SDS_P2;PMS_P1;PMS_P2;Temp;Humidity;BMP_temperature;BMP_pressure;BME280_temperature;BME280_humidity;BME280_pressure;Samples;Min_cycle;Max_cycle;Signal;HPM_P1;HPM_P2
2023/09/20 00:01:40;;;;;;;15.30;12.15;;;16.40;99.90;;;;;;6184234;23;20017;-81
2023/09/20 00:04:06;;;;;;;18.95;15.07;;;16.40;99.90;;;;;;6210609;23;20048;-82
2023/09/20 00:06:32;;;;;;;16.92;13.13;;;16.40;99.90;;;;;;6183904;23;20095;-81
2023/09/20 00:09:00;;;;;;;20.52;12.43;;;16.40;99.90;;;;;;6184028;23;20048;-81
2023/09/20 00:11:26;;;;;;;17.38;11.35;;;16.30;99.90;;;;;;6183960;23;20016;-81
2023/09/20 00:13:53;;;;;;;19.17;12.43;;;16.30;99.90;;;;;;6183505;23;20027;-81
2023/09/20 00:16:19;;;;;;;18.17;12.13;;;16.30;99.90;;;;;;6205957;23;20091;-81
2023/09/20 00:18:44;;;;;;;18.08;14.93;;;16.40;99.90;;;;;;6214220;23;20017;-81
2023/09/20 00:21:11;;;;;;;18.63;12.15;;;16.30;99.90;;;;;;6239274;23;20023;-81
2023/09/20 00:23:37;;;;;;;15.63;11.35;;;16.30;99.90;;;;;;6213829;23;20009;-81
2023/09/20 00:26:03;;;;;;;20.17;12.57;;;16.40;99.90;;;;;;6239151;23;20012;-81
2023/09/20 00:28:30;;;;;;;16.60;11.32;;;16.10;99.90;;;;;;6188336;23;20004;-81
2023/09/20 00:30:56;;;;;;;17.23;13.60;;;16.30;99.90;;;;;;6214279;23;20435;-81
2023/09/20 00:33:22;;;;;;;15.52;10.88;;;16.30;99.90;;;;;;6239347;23;20044;-81
2023/09/20 00:35:48;;;;;;;16.70;9.95;;;16.40;99.90;;;;;;6239152;23;20040;-81
2023/09/20 00:38:16;;;;;;;16.63;13.52;;;16.40;99.90;;;;;;6213625;23;20070;-81
2023/09/20 00:40:43;;;;;;;15.38;11.93;;;16.40;99.90;;;;;;6213994;23;20338;-82
2023/09/20 00:43:11;;;;;;;17.95;13.07;;;16.40;99.90;;;;;;6213360;23;20008;-81
2023/09/20 00:45:40;;;;;;;16.27;11.50;;;16.40;99.90;;;;;;6214302;23;20050;-82
2023/09/20 00:48:07;;;;;;;15.20;11.10;;;16.40;99.90;;;;;;6239321;23;20008;-81
2023/09/20 00:50:35;;;;;;;19.33;17.40;;;16.40;99.90;;;;;;6188847;23;20016;-81
2023/09/20 00:53:06;;;;;;;16.15;11.25;;;16.50;99.90;;;;;;6213683;23;20504;-81
2023/09/20 00:55:34;;;;;;;15.32;11.48;;;16.50;99.90;;;;;;6213850;23;20338;-82
2023/09/20 00:58:04;;;;;;;21.17;12.25;;;16.50;99.90;;;;;;6213443;23;20107;-81
2023/09/20 01:00:32;;;;;;;16.45;10.98;;;16.40;99.90;;;;;;6240841;23;20008;-81
2023/09/20 01:03:00;;;;;;;17.45;10.23;;;16.50;99.90;;;;;;6213880;23;20058;-81
2023/09/20 01:05:27;;;;;;;14.85;9.93;;;16.50;99.90;;;;;;6239268;23;20047;-81
2023/09/20 01:07:55;;;;;;;17.00;10.93;;;16.60;99.90;;;;;;6213761;23;20016;-82
2023/09/20 01:10:25;;;;;;;19.23;12.38;;;16.50;99.90;;;;;;6213712;23;20044;-81
2023/09/20 01:12:57;;;;;;;19.95;11.10;;;16.40;99.90;;;;;;6213306;23;20012;-81
2023/09/20 01:15:24;;;;;;;16.77;12.80;;;16.40;99.90;;;;;;6208828;23;20087;-81
2023/09/20 01:18:01;;;;;;;14.57;10.55;;;16.40;99.90;;;;;;6208700;23;20046;-81
2023/09/20 01:20:31;;;;;;;19.58;11.60;;;16.40;99.90;;;;;;6208744;23;20016;-82
2023/09/20 01:22:58;;;;;;;14.80;10.75;;;16.50;99.90;;;;;;6234075;23;20343;-82
2023/09/20 01:25:30;;;;;;;15.68;9.32;;;16.40;99.90;;;;;;6233999;23;20016;-81
2023/09/20 01:27:58;;;;;;;19.73;13.32;;;16.40;99.90;;;;;;6233526;23;20351;-81
2023/09/20 01:30:28;;;;;;;16.80;10.73;;;16.50;99.90;;;;;;6208866;23;20017;-80
2023/09/20 01:32:59;;;;;;;21.60;10.65;;;16.30;99.90;;;;;;6233871;23;20067;-81
2023/09/20 01:35:27;;;;;;;23.30;13.13;;;16.40;99.90;;;;;;6233944;23;20019;-81
2023/09/20 01:37:53;;;;;;;14.77;9.80;;;16.50;99.90;;;;;;6233831;23;20347;-81
2023/09/20 01:40:19;;;;;;;15.88;10.43;;;16.10;99.90;;;;;;6210207;23;20059;-81
2023/09/20 01:42:49;;;;;;;14.00;9.02;;;16.50;99.90;;;;;;6208056;23;20013;-81
2023/09/20 01:45:19;;;;;;;19.58;14.25;;;16.50;99.90;;;;;;6211618;23;20091;-81
2023/09/20 01:47:55;;;;;;;21.38;10.70;;;16.50;99.90;;;;;;6185498;23;20017;-81
2023/09/20 01:50:24;;;;;;;18.20;14.20;;;16.60;99.90;;;;;;6185407;23;20012;-81
2023/09/20 01:52:51;;;;;;;18.77;9.23;;;16.50;99.90;;;;;;6235574;23;20088;-81
2023/09/20 01:55:20;;;;;;;16.70;15.07;;;16.50;99.90;;;;;;6184837;23;20051;-81
2023/09/20 01:57:53;;;;;;;15.98;10.20;;;16.60;99.90;;;;;;6235421;23;20339;-81
2023/09/20 02:00:29;;;;;;;16.10;12.23;;;16.60;99.90;;;;;;6235748;23;20013;-81
2023/09/20 02:02:57;;;;;;;15.63;8.40;;;16.60;99.90;;;;;;6235946;23;20553;-81
2023/09/20 02:05:23;;;;;;;14.43;8.15;;;16.60;99.90;;;;;;6235960;23;20111;-81
2023/09/20 02:07:52;;;;;;;23.40;14.45;;;16.70;99.90;;;;;;6210250;23;20016;-81
2023/09/20 02:10:19;;;;;;;22.30;20.20;;;16.80;99.90;;;;;;6234847;23;20085;-80
2023/09/20 02:12:54;;;;;;;19.08;10.38;;;16.70;99.90;;;;;;6235321;23;20510;-81
2023/09/20 02:15:22;;;;;;;16.73;9.63;;;16.70;99.90;;;;;;6185248;23;20455;-80
2023/09/20 02:17:48;;;;;;;15.55;10.63;;;16.60;99.90;;;;;;6210222;23;20052;-81
2023/09/20 02:20:22;;;;;;;16.35;9.57;;;16.70;99.90;;;;;;6235406;23;20016;-81
2023/09/20 02:22:48;;;;;;;14.65;11.13;;;16.80;99.90;;;;;;6210188;23;20087;-81
2023/09/20 02:25:20;;;;;;;19.67;13.10;;;16.70;99.90;;;;;;6234793;23;20071;-81
2023/09/20 02:27:47;;;;;;;15.48;9.80;;;16.70;99.90;;;;;;6235408;23;20339;-82
2023/09/20 02:30:16;;;;;;;14.95;9.13;;;16.70;99.90;;;;;;6210120;23;20035;-81
2023/09/20 02:32:43;;;;;;;20.48;11.57;;;16.70;99.90;;;;;;6185399;23;20019;-81
2023/09/20 02:35:09;;;;;;;17.73;9.93;;;16.70;99.90;;;;;;6210105;23;20023;-81
2023/09/20 02:37:35;;;;;;;14.73;12.75;;;16.70;99.90;;;;;;6185006;23;20095;-82
2023/09/20 02:40:50;;;;;;;13.73;9.13;;;16.70;99.90;;;;;;6211171;23;20178;-81
2023/09/20 02:42:58;;;;;;;15.40;10.30;;;16.70;99.90;;;;;;6198951;23;20525;-82
2023/09/20 02:45:25;;;;;;;15.63;10.70;;;16.80;99.90;;;;;;6235401;23;20034;-82
2023/09/20 02:47:51;;;;;;;18.00;12.65;;;16.80;99.90;;;;;;6184750;23;20099;-81
2023/09/20 02:50:19;;;;;;;13.85;10.77;;;16.80;99.90;;;;;;6235167;23;20074;-82
2023/09/20 02:52:46;;;;;;;18.40;12.52;;;16.80;99.90;;;;;;6235281;23;20344;-82
2023/09/20 02:55:14;;;;;;;13.35;9.70;;;16.80;99.90;;;;;;6234406;23;20017;-81
2023/09/20 02:57:41;;;;;;;16.52;11.23;;;16.80;99.90;;;;;;6211317;23;20024;-81
2023/09/20 03:00:15;;;;;;;18.98;10.60;;;16.80;99.90;;;;;;6235091;23;20013;-81
2023/09/20 03:02:46;;;;;;;20.35;12.40;;;16.80;99.90;;;;;;6235202;23;20079;-81
2023/09/20 03:05:21;;;;;;;18.08;14.05;;;16.70;99.90;;;;;;6235100;23;20084;-81
2023/09/20 03:07:48;;;;;;;17.48;13.38;;;16.70;99.90;;;;;;6234610;23;20017;-81
2023/09/20 03:10:16;;;;;;;17.77;10.23;;;16.70;99.90;;;;;;6235057;23;20084;-81
2023/09/20 03:12:46;;;;;;;19.27;16.88;;;16.70;99.90;;;;;;6234822;23;20059;-81
2023/09/20 03:15:12;;;;;;;17.67;9.27;;;16.70;99.90;;;;;;6209688;23;20027;-82
2023/09/20 03:17:39;;;;;;;14.15;9.18;;;16.80;99.90;;;;;;6209730;23;20021;-81
2023/09/20 03:20:25;;;;;;;14.30;12.27;;;16.80;99.90;;;;;;6209500;23;20019;-81
2023/09/20 03:22:57;;;;;;;16.40;10.38;;;16.80;99.90;;;;;;6234462;23;20023;-82
2023/09/20 03:25:23;;;;;;;24.10;21.33;;;16.80;99.90;;;;;;6234923;23;20436;-82
2023/09/20 03:27:50;;;;;;;14.00;9.80;;;16.80;99.90;;;;;;6234572;23;20063;-81
2023/09/20 03:30:17;;;;;;;13.68;9.20;;;16.80;99.90;;;;;;6209668;23;20179;-81
2023/09/20 03:32:44;;;;;;;15.15;11.75;;;16.80;99.90;;;;;;6209577;23;20016;-82
2023/09/20 03:35:12;;;;;;;14.85;9.43;;;16.80;99.90;;;;;;6184433;23;20024;-80
2023/09/20 03:37:39;;;;;;;15.18;12.93;;;16.80;99.90;;;;;;6234163;23;20048;-82
2023/09/20 03:40:28;;;;;;;19.70;13.48;;;16.70;99.90;;;;;;6234590;23;20013;-82
2023/09/20 03:42:52;;;;;;;18.25;11.13;;;16.80;99.90;;;;;;6208685;23;20020;-81
2023/09/20 03:45:19;;;;;;;14.52;12.18;;;16.80;99.90;;;;;;6210945;23;20015;-81
2023/09/20 03:47:48;;;;;;;18.58;16.05;;;16.80;99.90;;;;;;6234533;23;20020;-81
2023/09/20 03:50:18;;;;;;;16.23;12.02;;;16.70;99.90;;;;;;6184448;23;20031;-81
2023/09/20 03:52:44;;;;;;;17.55;15.18;;;16.80;99.90;;;;;;6183673;23;20013;-81
2023/09/20 03:55:09;;;;;;;17.92;10.82;;;16.80;99.90;;;;;;6210958;23;20483;-82
2023/09/20 03:57:37;;;;;;;14.20;9.20;;;16.80;99.90;;;;;;6184040;23;20019;-81
2023/09/20 04:00:24;;;;;;;16.42;8.60;;;16.80;99.90;;;;;;6214441;23;20016;-81
2023/09/20 04:02:53;;;;;;;19.33;17.40;;;16.80;99.90;;;;;;6236486;23;20088;-81
2023/09/20 04:05:19;;;;;;;15.43;13.80;;;17.20;99.90;;;;;;6209382;23;20079;-82
2023/09/20 04:07:47;;;;;;;17.00;12.23;;;16.80;99.90;;;;;;6208756;23;20031;-81
2023/09/20 04:10:17;;;;;;;15.15;11.68;;;17.00;99.90;;;;;;6234571;23;20012;-82
2023/09/20 04:12:47;;;;;;;18.05;10.38;;;16.80;99.90;;;;;;6234543;23;20020;-82
2023/09/20 04:15:14;;;;;;;16.25;11.52;;;16.80;99.90;;;;;;6209286;23;20104;-82
2023/09/20 04:17:40;;;;;;;19.88;11.40;;;16.80;99.90;;;;;;6209235;23;20566;-82
2023/09/20 04:20:07;;;;;;;17.60;11.20;;;16.60;99.90;;;;;;6208648;23;20105;-82
2023/09/20 04:22:34;;;;;;;14.60;13.00;;;16.80;99.90;;;;;;6234380;23;20012;-82
2023/09/20 04:25:02;;;;;;;15.30;10.48;;;16.80;99.90;;;;;;6234339;23;20070;-84
2023/09/20 04:27:28;;;;;;;16.20;8.55;;;16.70;99.90;;;;;;6209356;23;20039;-83
2023/09/20 04:29:54;;;;;;;12.13;9.60;;;16.70;99.90;;;;;;6210666;23;20009;-83
2023/09/20 04:32:20;;;;;;;18.25;13.02;;;16.60;99.90;;;;;;6209368;23;20012;-83
2023/09/20 04:34:45;;;;;;;14.50;9.60;;;16.50;99.90;;;;;;6233350;23;20458;-82
2023/09/20 04:37:14;;;;;;;16.33;11.60;;;16.50;99.90;;;;;;6209461;23;20451;-82
2023/09/20 04:39:40;;;;;;;15.10;10.52;;;16.40;99.90;;;;;;6184204;23;20076;-82
2023/09/20 04:42:10;;;;;;;21.30;19.15;;;16.40;99.90;;;;;;6234482;23;20098;-82
2023/09/20 04:44:36;;;;;;;15.48;10.98;;;16.20;99.90;;;;;;6209030;23;20044;-82
2023/09/20 04:47:02;;;;;;;20.83;15.40;;;16.20;99.90;;;;;;6234135;23;20032;-82
2023/09/20 04:49:27;;;;;;;13.95;11.90;;;16.10;99.90;;;;;;6207827;23;20325;-82
2023/09/20 04:51:53;;;;;;;18.30;11.18;;;16.30;99.90;;;;;;6183619;23;20012;-81
2023/09/20 04:54:21;;;;;;;18.58;16.55;;;16.10;99.90;;;;;;6183369;23;20044;-81
2023/09/20 04:56:47;;;;;;;19.63;11.38;;;16.00;99.90;;;;;;6183302;23;20040;-81
2023/09/20 04:59:16;;;;;;;17.10;12.52;;;16.00;99.90;;;;;;6183702;23;20017;-82
2023/09/20 05:01:42;;;;;;;22.75;14.85;;;15.90;99.90;;;;;;6183663;23;20242;-82
2023/09/20 05:04:13;;;;;;;19.08;15.07;;;15.90;99.90;;;;;;6233391;23;20305;-83
2023/09/20 05:06:41;;;;;;;16.75;12.30;;;15.90;99.90;;;;;;6210981;23;20048;-81
2023/09/20 05:09:08;;;;;;;25.48;21.70;;;15.80;99.90;;;;;;6183761;23;20367;-82
2023/09/20 05:11:34;;;;;;;21.77;19.75;;;15.80;99.90;;;;;;6234899;23;20012;-82
2023/09/20 05:14:00;;;;;;;22.52;20.20;;;15.80;99.90;;;;;;6208473;23;20024;-82
2023/09/20 05:16:26;;;;;;;22.60;20.40;;;15.80;99.90;;;;;;6183550;23;20021;-82
2023/09/20 05:18:52;;;;;;;18.05;16.35;;;15.80;99.90;;;;;;6233983;23;20071;-82
2023/09/20 05:21:18;;;;;;;20.42;18.48;;;15.90;99.90;;;;;;6236049;23;20008;-83
2023/09/20 05:23:43;;;;;;;25.13;22.52;;;15.80;99.90;;;;;;6210860;23;20327;-83
2023/09/20 05:26:10;;;;;;;19.98;15.52;;;15.80;99.90;;;;;;6185842;23;20016;-82
2023/09/20 05:28:36;;;;;;;17.42;12.75;;;15.80;99.90;;;;;;6235637;23;20016;-83
2023/09/20 05:31:05;;;;;;;22.70;20.33;;;15.80;99.90;;;;;;6236002;23;20263;-83
2023/09/20 05:33:32;;;;;;;22.08;20.08;;;15.80;99.90;;;;;;6235076;23;20080;-82
2023/09/20 05:35:58;;;;;;;18.52;15.40;;;15.80;99.90;;;;;;6235855;23;20020;-83
2023/09/20 05:38:24;;;;;;;18.63;13.05;;;15.90;99.90;;;;;;6235398;23;20091;-82
2023/09/20 05:40:50;;;;;;;24.08;21.50;;;15.90;99.90;;;;;;6236003;23;20446;-82
2023/09/20 05:43:16;;;;;;;15.85;12.05;;;16.00;99.90;;;;;;6236092;23;20044;-82
2023/09/20 05:45:42;;;;;;;15.52;10.07;;;16.00;99.90;;;;;;6236271;23;20012;-83
2023/09/20 05:48:10;;;;;;;18.42;11.15;;;16.10;99.90;;;;;;6211847;23;20087;-83
2023/09/20 05:50:37;;;;;;;19.48;17.67;;;16.10;99.90;;;;;;6185419;23;20016;-82
2023/09/20 05:53:06;;;;;;;24.92;22.75;;;16.20;99.90;;;;;;6210284;23;20084;-82
2023/09/20 05:55:35;;;;;;;20.02;17.25;;;16.20;99.90;;;;;;6235850;23;20089;-82
2023/09/20 05:58:02;;;;;;;13.70;10.23;;;16.20;99.90;;;;;;6235583;23;20087;-83
2023/09/20 06:00:29;;;;;;;11.48;9.75;;;16.20;99.90;;;;;;6210583;23;20015;-82
2023/09/20 06:02:58;;;;;;;20.15;18.23;;;16.30;99.90;;;;;;6184741;23;20009;-83
2023/09/20 06:05:24;;;;;;;14.65;11.65;;;16.30;99.90;;;;;;6235406;23;20008;-83
2023/09/20 06:07:51;;;;;;;15.30;10.52;;;16.30;99.90;;;;;;6185415;23;20039;-82
2023/09/20 06:10:18;;;;;;;15.73;13.90;;;16.30;99.90;;;;;;6210162;23;20097;-82
2023/09/20 06:12:45;;;;;;;16.08;11.32;;;16.30;99.90;;;;;;6185372;23;20016;-82
2023/09/20 06:15:15;;;;;;;16.30;10.25;;;16.30;99.90;;;;;;6235338;23;20024;-83
2023/09/20 06:17:47;;;;;;;13.95;9.50;;;16.40;99.90;;;;;;6234606;23;20440;-83
2023/09/20 06:20:16;;;;;;;13.73;11.05;;;16.40;99.90;;;;;;6185312;23;20017;-81
2023/09/20 06:22:42;;;;;;;17.38;13.30;;;16.30;99.90;;;;;;6210504;23;20016;-82
2023/09/20 06:25:10;;;;;;;14.30;10.05;;;16.20;99.90;;;;;;6235533;23;20534;-83
2023/09/20 06:27:36;;;;;;;15.82;13.32;;;16.30;99.90;;;;;;6235667;23;20023;-82
2023/09/20 06:30:07;;;;;;;13.07;10.65;;;16.30;99.90;;;;;;6235193;23;20063;-82
2023/09/20 06:32:33;;;;;;;21.95;12.70;;;16.30;99.90;;;;;;6234902;23;20020;-82
2023/09/20 06:35:07;;;;;;;15.35;13.75;;;16.20;99.90;;;;;;6184847;23;20019;-82
2023/09/20 06:37:34;;;;;;;13.57;11.48;;;16.20;99.90;;;;;;6235637;23;20538;-82
2023/09/20 06:40:00;;;;;;;11.20;9.23;;;16.20;99.90;;;;;;6235474;23;20056;-82
2023/09/20 06:42:29;;;;;;;13.63;11.38;;;16.20;99.90;;;;;;6210151;23;20051;-82
2023/09/20 06:44:55;;;;;;;19.23;17.55;;;16.20;99.90;;;;;;6210144;23;20012;-83
2023/09/20 06:47:22;;;;;;;13.23;10.52;;;16.30;99.90;;;;;;6185436;23;20017;-82
2023/09/20 06:49:48;;;;;;;17.88;12.32;;;16.30;99.90;;;;;;6210002;23;20429;-82
2023/09/20 06:52:13;;;;;;;13.88;9.30;;;16.40;99.90;;;;;;6184931;23;20056;-82
2023/09/20 06:54:39;;;;;;;15.48;13.35;;;16.50;99.90;;;;;;6209832;23;20017;-82
2023/09/20 06:57:05;;;;;;;31.10;13.18;;;16.50;99.90;;;;;;6209619;23;20344;-82
2023/09/20 06:59:32;;;;;;;17.20;15.60;;;16.60;99.90;;;;;;6234669;23;20407;-83
2023/09/20 07:02:03;;;;;;;12.07;7.40;;;16.80;99.90;;;;;;6184786;23;20017;-82
2023/09/20 07:04:28;;;;;;;10.70;9.35;;;17.00;99.90;;;;;;6185076;23;20012;-83
2023/09/20 07:06:59;;;;;;;12.52;9.25;;;17.10;99.90;;;;;;6211293;23;20018;-83
2023/09/20 07:09:26;;;;;;;9.95;8.70;;;17.10;99.90;;;;;;6210135;23;20339;-83
2023/09/20 07:11:53;;;;;;;13.80;9.43;;;17.20;99.90;;;;;;6209869;23;20027;-83
2023/09/20 07:14:23;;;;;;;16.85;9.32;;;17.20;99.90;;;;;;6209246;23;20024;-83
2023/09/20 07:16:50;;;;;;;10.27;8.50;;;17.20;99.90;;;;;;6209651;23;20138;-83
2023/09/20 07:19:17;;;;;;;14.70;9.93;;;17.20;99.90;;;;;;6235455;23;20524;-83
2023/09/20 07:21:46;;;;;;;13.68;9.07;;;17.10;99.90;;;;;;6209520;23;20048;-82
2023/09/20 07:24:12;;;;;;;11.88;8.90;;;17.10;99.90;;;;;;6210255;23;20016;-82
2023/09/20 07:26:43;;;;;;;25.02;11.68;;;17.00;99.90;;;;;;6209946;23;20012;-83
2023/09/20 07:29:14;;;;;;;12.50;8.85;;;17.00;99.90;;;;;;6234306;23;20024;-81
2023/09/20 07:31:40;;;;;;;16.75;9.40;;;17.00;99.90;;;;;;6209624;23;20486;-83
2023/09/20 07:34:11;;;;;;;14.90;10.52;;;17.00;99.90;;;;;;6209764;23;20466;-82
2023/09/20 07:36:43;;;;;;;14.20;9.02;;;17.00;99.90;;;;;;6184614;23;20259;-82
2023/09/20 07:39:12;;;;;;;13.10;9.75;;;17.10;99.90;;;;;;6209231;23;20008;-83
2023/09/20 07:41:44;;;;;;;17.25;14.40;;;17.20;99.90;;;;;;6209160;23;20013;-82
2023/09/20 07:44:13;;;;;;;13.45;10.05;;;17.20;99.90;;;;;;6234358;23;20012;-82
2023/09/20 07:46:42;;;;;;;13.10;9.40;;;17.30;99.90;;;;;;6235038;23;20451;-82
2023/09/20 07:49:09;;;;;;;13.30;9.10;;;17.40;99.90;;;;;;6209699;23;20016;-82
2023/09/20 07:51:36;;;;;;;10.93;8.50;;;17.60;99.90;;;;;;6209289;23;20079;-83
2023/09/20 07:54:06;;;;;;;11.52;9.55;;;17.70;99.90;;;;;;6209337;23;20091;-83
2023/09/20 07:56:32;;;;;;;13.48;9.55;;;17.80;99.90;;;;;;6209606;23;20575;-83
2023/09/20 07:58:58;;;;;;;11.48;10.32;;;17.70;99.90;;;;;;6208724;23;20008;-83
2023/09/20 08:01:29;;;;;;;11.13;9.57;;;17.80;99.90;;;;;;6184550;23;20071;-83
2023/09/20 08:03:58;;;;;;;13.20;10.90;;;17.80;99.90;;;;;;6209323;23;20012;-83
2023/09/20 08:06:35;;;;;;;13.45;10.60;;;17.80;99.90;;;;;;6234642;23;20352;-83
2023/09/20 08:09:02;;;;;;;18.23;11.93;;;17.70;99.90;;;;;;6184332;23;20095;-82
2023/09/20 08:11:29;;;;;;;13.35;10.57;;;17.70;99.90;;;;;;6234431;23;20013;-84
2023/09/20 08:13:57;;;;;;;12.73;10.48;;;17.70;99.90;;;;;;6208764;23;20370;-82
2023/09/20 08:16:24;;;;;;;13.93;11.50;;;17.70;99.90;;;;;;6234245;23;20016;-83
2023/09/20 08:19:10;;;;;;;11.10;9.82;;;17.60;99.90;;;;;;6234495;23;20020;-83
2023/09/20 08:21:38;;;;;;;15.65;9.27;;;17.70;99.90;;;;;;6209497;23;20036;-83
2023/09/20 09:00:21;;;;;;;10.98;9.73;;;18.50;99.90;;;;;;6236774;23;20016;-83
2023/09/20 09:02:58;;;;;;;13.80;9.23;;;18.60;99.90;;;;;;6212049;23;20347;-83
2023/09/20 09:05:28;;;;;;;14.50;9.52;;;18.60;99.90;;;;;;6211988;23;20347;-82
2023/09/20 09:07:59;;;;;;;11.85;10.80;;;18.60;99.90;;;;;;6211753;23;20017;-83
2023/09/20 09:10:25;;;;;;;13.63;9.80;;;18.70;99.90;;;;;;6236212;23;20019;-83
2023/09/20 09:12:51;;;;;;;13.23;9.23;;;18.70;99.90;;;;;;6211472;23;20013;-83
2023/09/20 09:15:17;;;;;;;11.85;10.70;;;18.70;99.90;;;;;;6211416;23;20021;-82
2023/09/20 09:17:44;;;;;;;15.10;11.68;;;18.70;99.90;;;;;;6186432;23;20020;-83
2023/09/20 09:20:15;;;;;;;12.95;9.30;;;18.70;99.90;;;;;;6236851;23;20008;-83
2023/09/20 09:22:42;;;;;;;13.55;9.85;;;18.70;99.90;;;;;;6211107;23;20013;-82
2023/09/20 09:25:14;;;;;;;12.20;10.02;;;18.80;99.90;;;;;;6210790;23;20240;-83
2023/09/20 09:27:41;;;;;;;13.50;10.20;;;18.80;99.90;;;;;;6211084;23;20076;-83
2023/09/20 09:30:14;;;;;;;13.80;10.10;;;18.70;99.90;;;;;;6236366;23;20475;-83
2023/09/20 09:32:41;;;;;;;13.02;9.52;;;18.80;99.90;;;;;;6186655;23;20407;-83
2023/09/20 09:35:08;;;;;;;14.43;9.93;;;18.90;99.90;;;;;;6210909;23;20080;-83
2023/09/20 09:37:35;;;;;;;11.52;10.23;;;19.00;99.90;;;;;;6186137;23;20048;-83
2023/09/20 09:40:04;;;;;;;10.48;9.48;;;19.10;99.90;;;;;;6235873;23;20012;-84
2023/09/20 09:42:30;;;;;;;11.57;10.25;;;19.20;99.90;;;;;;6186130;23;20005;-83
2023/09/20 09:44:56;;;;;;;10.05;8.60;;;19.20;99.90;;;;;;6236479;23;20012;-83
2023/09/20 09:47:25;;;;;;;10.82;9.38;;;19.30;99.90;;;;;;6211342;23;20088;-83
2023/09/20 09:49:55;;;;;;;12.05;9.77;;;19.40;99.90;;;;;;6211193;23;20017;-83
2023/09/20 09:52:24;;;;;;;11.43;8.35;;;19.50;99.90;;;;;;6236673;23;20035;-82
2023/09/20 09:54:54;;;;;;;13.05;8.40;;;19.60;99.90;;;;;;6236623;23;20017;-83
2023/09/20 09:57:20;;;;;;;12.20;10.93;;;19.60;99.90;;;;;;6210957;23;20013;-83
2023/09/20 09:59:47;;;;;;;12.20;8.88;;;19.70;99.90;;;;;;6186067;23;20325;-83
2023/09/20 10:02:17;;;;;;;11.23;10.13;;;19.90;99.90;;;;;;6210642;23;20463;-83
2023/09/20 10:04:51;;;;;;;8.73;7.95;;;20.00;99.90;;;;;;6235908;23;20116;-84
2023/09/20 10:07:22;;;;;;;10.45;9.30;;;20.10;99.90;;;;;;6210606;23;20017;-83
2023/09/20 10:09:52;;;;;;;9.45;8.55;;;20.20;99.90;;;;;;6211183;23;20173;-83
2023/09/20 10:12:21;;;;;;;11.45;9.13;;;20.30;99.90;;;;;;6211350;23;20043;-83
2023/09/20 10:14:48;;;;;;;9.90;8.90;;;20.30;99.90;;;;;;6188675;23;20087;-83
2023/09/20 10:17:20;;;;;;;10.70;9.77;;;20.30;99.90;;;;;;6241534;23;20048;-83
2023/09/20 10:19:53;;;;;;;14.80;13.53;;;20.30;99.90;;;;;;6216005;23;20012;-83
2023/09/20 10:22:21;;;;;;;13.75;12.57;;;20.10;99.90;;;;;;6216007;23;20238;-83
2023/09/20 10:24:55;;;;;;;13.32;12.18;;;20.20;99.90;;;;;;6190075;23;20012;-83
2023/09/20 10:27:23;;;;;;;11.70;10.27;;;20.20;99.90;;;;;;6242280;23;20020;-83
2023/09/20 10:30:05;;;;;;;18.83;17.27;;;20.20;99.90;;;;;;6215553;23;20030;-83
2023/09/20 10:32:38;;;;;;;12.02;10.77;;;20.00;99.90;;;;;;6190802;23;20080;-83
2023/09/20 10:35:22;;;;;;;13.18;11.85;;;20.00;99.90;;;;;;6241295;23;20018;-83
2023/09/20 10:38:20;;;;;;;11.60;10.50;;;20.00;99.90;;;;;;6240085;23;20346;-83
2023/09/20 10:40:49;;;;;;;11.60;10.57;;;20.10;99.90;;;;;;6240956;23;20016;-83
2023/09/20 10:43:16;;;;;;;10.73;9.68;;;20.00;99.90;;;;;;6240702;23;20013;-83
2023/09/20 10:45:49;;;;;;;11.88;9.57;;;20.10;99.90;;;;;;6243114;23;20014;-83
2023/09/20 10:48:18;;;;;;;12.18;10.98;;;20.10;99.90;;;;;;6215596;23;20447;-84
2023/09/20 10:50:53;;;;;;;14.00;10.82;;;20.10;99.90;;;;;;6240604;23;20083;-83
2023/09/20 10:53:22;;;;;;;11.07;9.95;;;20.00;99.90;;;;;;6190323;23;20012;-83
2023/09/20 10:55:49;;;;;;;17.60;16.15;;;20.00;99.90;;;;;;6215630;23;20450;-83
2023/09/20 10:58:19;;;;;;;13.45;12.15;;;19.90;99.90;;;;;;6242717;23;20013;-84
2023/09/20 11:00:50;;;;;;;10.02;9.02;;;19.90;99.90;;;;;;6215557;23;20016;-83
2023/09/20 11:03:17;;;;;;;11.35;10.20;;;19.90;99.90;;;;;;6241020;23;20019;-83
2023/09/20 11:05:44;;;;;;;9.82;8.80;;;20.00;99.90;;;;;;6190319;23;20062;-84
2023/09/20 11:08:13;;;;;;;10.70;9.65;;;20.00;99.90;;;;;;6240131;23;20092;-83
2023/09/20 11:10:44;;;;;;;11.68;10.57;;;19.90;99.90;;;;;;6215281;23;20035;-83
2023/09/20 11:13:12;;;;;;;14.43;13.27;;;19.90;99.90;;;;;;6190660;23;20086;-83
2023/09/20 11:15:41;;;;;;;12.40;11.50;;;19.80;99.90;;;;;;6214900;23;20023;-84
2023/09/20 11:18:08;;;;;;;11.05;10.05;;;19.80;99.90;;;;;;6240776;23;20097;-83
2023/09/20 11:20:34;;;;;;;9.10;8.20;;;19.80;99.90;;;;;;6240047;23;20012;-83
2023/09/20 11:23:03;;;;;;;13.25;11.63;;;19.70;99.90;;;;;;6215330;23;20016;-83
2023/09/20 11:25:29;;;;;;;9.40;8.45;;;19.70;99.90;;;;;;6190387;23;20050;-83
2023/09/20 11:27:56;;;;;;;9.88;9.00;;;19.70;99.90;;;;;;6190447;23;20016;-83
2023/09/20 11:30:27;;;;;;;11.45;10.43;;;19.80;99.90;;;;;;6215456;23;20015;-83
2023/09/20 11:32:56;;;;;;;12.93;12.02;;;19.70;99.90;;;;;;6215600;23;20090;-83
2023/09/20 11:35:33;;;;;;;10.43;9.60;;;19.80;99.90;;;;;;6214907;23;20447;-83
2023/09/20 11:38:03;;;;;;;11.10;10.20;;;19.80;99.90;;;;;;6190296;23;20093;-83
2023/09/20 11:40:42;;;;;;;10.65;9.80;;;20.00;99.90;;;;;;6215417;23;20019;-83
2023/09/20 11:43:12;;;;;;;9.70;8.85;;;20.10;99.90;;;;;;6215260;23;20022;-84
2023/09/20 11:45:41;;;;;;;11.45;10.45;;;20.20;99.90;;;;;;6242731;23;20046;-83
2023/09/20 11:48:13;;;;;;;12.15;11.13;;;20.40;99.90;;;;;;6215152;23;20012;-83
2023/09/20 11:50:44;;;;;;;11.10;10.10;;;20.40;99.90;;;;;;6190011;23;20263;-84
2023/09/20 11:53:15;;;;;;;28.25;26.25;;;20.50;99.90;;;;;;6190126;23;20016;-82
2023/09/20 11:55:42;;;;;;;11.75;9.43;;;20.50;99.90;;;;;;6215289;23;20489;-83
2023/09/20 11:58:09;;;;;;;12.50;11.30;;;20.60;99.90;;;;;;6190443;23;20023;-84
2023/09/20 12:00:36;;;;;;;12.60;11.48;;;20.70;99.90;;;;;;6190079;23;20068;-83
2023/09/20 12:03:02;;;;;;;10.48;9.43;;;20.80;99.90;;;;;;6215835;23;20517;-84
2023/09/20 12:05:28;;;;;;;10.52;9.38;;;20.90;99.90;;;;;;6214457;23;20012;-84
2023/09/20 12:08:01;;;;;;;11.60;10.60;;;20.90;99.90;;;;;;6214905;23;20055;-83
2023/09/20 12:10:29;;;;;;;10.45;9.45;;;21.00;99.90;;;;;;6215821;23;20022;-84
2023/09/20 12:12:55;;;;;;;12.63;10.43;;;21.00;99.90;;;;;;6190110;23;20459;-83
2023/09/20 12:15:22;;;;;;;57.92;52.63;;;21.10;99.90;;;;;;6215257;23;20061;-84
2023/09/20 12:17:51;;;;;;;11.45;10.45;;;21.10;99.90;;;;;;6215483;23;20024;-83
2023/09/20 12:20:18;;;;;;;11.30;10.15;;;21.30;99.90;;;;;;6189747;23;20332;-84
2023/09/20 12:22:44;;;;;;;11.85;10.43;;;21.50;99.90;;;;;;6215364;23;20015;-84
2023/09/20 12:25:16;;;;;;;11.43;10.35;;;21.70;99.90;;;;;;6190334;23;20505;-84
2023/09/20 12:27:43;;;;;;;13.30;12.10;;;21.80;99.90;;;;;;6215525;23;20047;-83
2023/09/20 12:30:12;;;;;;;12.13;10.60;;;21.80;99.90;;;;;;6215107;23;20048;-83
2023/09/20 12:32:41;;;;;;;11.82;10.90;;;21.70;99.90;;;;;;6190137;23;20027;-84
2023/09/20 12:35:11;;;;;;;12.95;11.05;;;21.90;99.90;;;;;;6215147;23;20023;-84
2023/09/20 12:37:37;;;;;;;11.48;9.13;;;22.00;99.90;;;;;;6215595;23;20016;-84
2023/09/20 12:40:10;;;;;;;12.13;10.98;;;22.10;99.90;;;;;;6240738;23;20023;-83
2023/09/20 12:42:37;;;;;;;11.00;9.80;;;22.10;99.90;;;;;;6215486;23;20389;-83
2023/09/20 12:45:07;;;;;;;12.70;10.23;;;22.20;99.90;;;;;;6240509;23;20389;-84
2023/09/20 12:47:33;;;;;;;9.90;8.90;;;22.20;99.90;;;;;;6189958;23;20103;-83
2023/09/20 12:50:03;;;;;;;12.65;11.35;;;22.30;99.90;;;;;;6215943;23;20064;-84
2023/09/20 12:52:29;;;;;;;12.98;10.48;;;22.40;99.90;;;;;;6215651;23;20078;-84
2023/09/20 12:54:55;;;;;;;12.88;8.90;;;22.60;99.90;;;;;;6240302;23;20016;-83
2023/09/20 12:57:24;;;;;;;9.55;8.65;;;22.40;99.90;;;;;;6240848;23;20308;-84
2023/09/20 12:59:50;;;;;;;26.05;12.38;;;22.40;99.90;;;;;;6241061;23;20458;-84
2023/09/20 13:02:15;;;;;;;10.20;6.25;;;22.60;99.90;;;;;;6215586;23;20323;-84
2023/09/20 13:04:46;;;;;;;7.93;6.22;;;22.90;99.90;;;;;;6216273;23;20389;-84
2023/09/20 13:07:12;;;;;;;11.63;9.65;;;23.10;99.90;;;;;;6241155;23;20069;-84
2023/09/20 13:09:39;;;;;;;9.20;8.30;;;23.20;99.90;;;;;;6190491;23;20470;-84
2023/09/20 13:12:05;;;;;;;10.68;6.78;;;23.20;99.90;;;;;;6239868;23;20027;-84
2023/09/20 13:14:31;;;;;;;9.48;6.55;;;23.10;99.90;;;;;;6214252;23;20014;-83